Time;durP1;ratioP1;P1;durP2;ratioP2;P2;SDS_P1;SDS_P2;PMS_P1;PMS_P2;Temp;Humidity;BMP_temperature;BMP_pressure;BME280_temperature;BME280_humidity;BME280_pressure;Samples;Min_cycle;Max_cycle;Signal;HPM_P1;HPM_P2
2022/03/02 00:01:05;;;;;;;;;61.75;50.00;;;;;4.68;59.47;100215.63;5002234;28;8989;-78
2022/03/02 00:03:34;;;;;;;;;61.50;51.00;;;;;4.52;58.89;100209.91;5024444;28;8882;-77
2022/03/02 00:06:03;;;;;;;;;64.75;50.75;;;;;4.63;59.48;100219.78;5018083;28;8971;-78
2022/03/02 00:08:32;;;;;;;;;63.50;50.00;;;;;4.63;58.49;100208.56;5020164;28;8868;-77
2022/03/02 00:11:03;;;;;;;;;61.75;50.50;;;;;4.53;58.48;100215.13;4977982;28;9048;-78
2022/03/02 00:13:32;;;;;;;;;50.50;45.25;;;;;4.63;58.44;100208.56;5016288;28;8866;-76
2022/03/02 00:16:00;;;;;;;;;63.75;52.00;;;;;4.41;58.07;100212.13;5019869;28;8864;-77
2022/03/02 00:18:30;;;;;;;;;59.75;50.00;;;;;4.47;57.91;100213.19;5002185;28;9017;-76
2022/03/02 00:20:58;;;;;;;;;58.00;50.50;;;;;4.42;58.42;100206.13;5051665;28;8870;-77
2022/03/02 00:23:27;;;;;;;;;54.00;48.75;;;;;4.22;58.69;100206.31;5033970;28;8955;-78
2022/03/02 00:25:56;;;;;;;;;63.00;48.00;;;;;4.05;58.77;100203.13;5033007;28;8882;-78
2022/03/02 00:28:26;;;;;;;;;62.25;49.25;;;;;3.65;59.94;100204.22;4967032;28;8872;-77
2022/03/02 00:30:55;;;;;;;;;62.00;50.75;;;;;3.59;60.27;100200.53;5009863;28;8874;-76
2022/03/02 00:33:23;;;;;;;;;63.25;53.25;;;;;3.00;61.79;100205.09;5025595;28;9719;-78
2022/03/02 00:35:52;;;;;;;;;59.75;49.25;;;;;2.44;64.07;100200.25;4991910;28;8892;-79
2022/03/02 00:38:21;;;;;;;;;61.50;51.50;;;;;2.03;65.20;100206.16;5010604;28;8862;-78
2022/03/02 00:40:50;;;;;;;;;62.75;51.75;;;;;1.82;65.80;100195.81;5010270;28;9750;-78
2022/03/02 00:43:19;;;;;;;;;63.00;51.75;;;;;1.68;66.67;100192.59;5013698;28;8866;-78
2022/03/02 00:45:49;;;;;;;;;60.00;48.75;;;;;1.72;66.22;100195.38;5013936;28;8878;-79
2022/03/02 00:48:19;;;;;;;;;57.75;48.25;;;;;1.53;65.11;100192.75;5011728;28;8955;-81
2022/03/02 00:50:48;;;;;;;;;57.25;48.75;;;;;1.51;66.07;100189.25;5011124;28;8963;-77
2022/03/02 00:53:17;;;;;;;;;60.25;49.50;;;;;1.50;66.59;100187.50;4961756;28;8898;-78
2022/03/02 00:55:46;;;;;;;;;53.25;46.50;;;;;1.38;66.25;100185.25;4994172;28;8905;-78
2022/03/02 00:58:15;;;;;;;;;59.00;52.00;;;;;1.40;66.62;100183.63;4993001;28;8873;-77
2022/03/02 01:00:43;;;;;;;;;54.00;46.50;;;;;1.32;66.76;100177.22;5005369;28;8880;-78
2022/03/02 01:03:14;;;;;;;;;59.75;47.00;;;;;1.24;66.82;100176.00;5009456;28;8876;-78
2022/03/02 01:05:42;;;;;;;;;57.75;48.50;;;;;1.12;67.24;100178.88;4993222;28;9008;-77
2022/03/02 01:08:11;;;;;;;;;58.25;50.00;;;;;1.04;67.39;100175.94;5008268;28;8860;-77
2022/03/02 01:10:39;;;;;;;;;58.75;48.25;;;;;0.96;67.47;100174.69;4975982;28;8866;-77
2022/03/02 01:13:08;;;;;;;;;43.25;36.75;;;;;1.02;66.95;100171.53;4999417;28;9770;-77
2022/03/02 01:15:37;;;;;;;;;60.00;51.25;;;;;1.01;66.66;100162.94;5001662;28;8870;-77
2022/03/02 01:18:06;;;;;;;;;61.00;49.50;;;;;1.00;66.82;100162.88;4979748;28;10277;-78
2022/03/02 01:20:36;;;;;;;;;52.00;45.25;;;;;1.03;66.83;100152.75;4975934;28;8878;-78
2022/03/02 01:23:04;;;;;;;;;48.75;43.00;;;;;1.03;65.89;100156.19;4976800;28;8979;-78
2022/03/02 01:25:33;;;;;;;;;61.75;48.25;;;;;0.97;66.11;100155.91;4995200;28;8973;-78
2022/03/02 01:28:02;;;;;;;;;52.00;45.25;;;;;0.99;66.14;100153.44;4993549;28;8882;-78
2022/03/02 01:30:30;;;;;;;;;55.50;45.75;;;;;0.87;66.07;100154.59;4975802;28;8832;-76
2022/03/02 01:32:59;;;;;;;;;55.75;47.50;;;;;0.88;66.72;100145.22;4973027;28;8943;-76
2022/03/02 01:35:28;;;;;;;;;51.75;45.75;;;;;0.86;66.55;100145.13;4940623;28;8874;-77
2022/03/02 01:37:58;;;;;;;;;36.25;36.25;;;;;0.87;66.09;100146.91;4992258;28;8874;-77
2022/03/02 01:40:27;;;;;;;;;56.00;45.50;;;;;0.95;65.60;100147.25;4992412;28;9080;-79
2022/03/02 01:42:56;;;;;;;;;48.75;43.50;;;;;0.94;64.69;100142.91;4989549;28;8866;-78
2022/03/02 01:45:24;;;;;;;;;48.75;45.25;;;;;0.96;63.99;100139.63;5020779;28;8959;-77
2022/03/02 01:47:54;;;;;;;;;53.25;45.00;;;;;1.07;63.69;100135.00;5021569;28;9000;-77
2022/03/02 01:50:23;;;;;;;;;46.50;44.50;;;;;1.22;63.49;100134.81;5003216;28;9003;-78
2022/03/02 01:52:52;;;;;;;;;45.75;40.00;;;;;1.14;62.37;100136.16;5002039;28;8913;-78
2022/03/02 01:55:22;;;;;;;;;39.25;37.50;;;;;1.23;62.76;100133.13;5003025;28;8878;-77
2022/03/02 01:57:51;;;;;;;;;51.25;44.50;;;;;1.38;63.16;100133.88;5019131;28;8890;-77
2022/03/02 02:00:23;;;;;;;;;43.50;41.00;;;;;1.43;62.94;100126.34;5020162;28;8882;-77
2022/03/02 02:02:52;;;;;;;;;45.75;41.00;;;;;1.61;62.54;100134.00;4982093;28;8915;-79
2022/03/02 02:05:22;;;;;;;;;49.00;37.50;;;;;1.68;62.08;100125.75;5013550;28;8852;-77
2022/03/02 02:07:51;;;;;;;;;54.25;45.50;;;;;1.55;61.77;100132.03;4977643;28;8919;-78
2022/03/02 02:10:19;;;;;;;;;45.75;39.25;;;;;1.51;62.18;100128.47;4977097;28;8942;-80
2022/03/02 02:12:50;;;;;;;;;49.33;45.67;;;;;1.68;62.12;100123.19;4980668;28;8857;-77
2022/03/02 02:15:18;;;;;;;;;50.75;46.00;;;;;1.69;62.11;100122.38;4994990;28;8942;-78
2022/03/02 02:17:47;;;;;;;;;49.25;45.25;;;;;1.63;62.58;100119.53;4982189;28;8888;-78
2022/03/02 02:20:15;;;;;;;;;41.25;35.25;;;;;1.69;62.23;100118.09;4998414;28;8982;-77
2022/03/02 02:22:47;;;;;;;;;41.00;39.50;;;;;1.54;62.48;100114.88;4983074;28;8841;-78
2022/03/02 02:25:17;;;;;;;;;51.00;44.25;;;;;1.86;61.31;100116.28;4982646;28;8884;-77
2022/03/02 02:27:49;;;;;;;;;45.75;40.25;;;;;2.18;61.02;100103.06;4982392;28;9060;-77
2022/03/02 02:30:18;;;;;;;;;27.75;21.50;;;;;2.41;59.67;100102.28;4980447;28;8954;-78
2022/03/02 02:32:47;;;;;;;;;49.00;45.25;;;;;2.47;58.72;100099.97;4963343;28;8979;-75
2022/03/02 02:35:16;;;;;;;;;35.25;33.25;;;;;2.01;60.04;100103.22;4979073;28;8866;-77
2022/03/02 02:37:46;;;;;;;;;46.25;39.75;;;;;1.96;60.77;100099.56;4941541;28;8877;-76
2022/03/02 02:40:17;;;;;;;;;52.25;43.75;;;;;2.20;60.61;100104.88;4960454;28;8894;-76
2022/03/02 02:42:47;;;;;;;;;46.75;40.75;;;;;2.33;60.49;100109.69;4962371;28;8938;-76
2022/03/02 02:45:20;;;;;;;;;53.50;44.75;;;;;2.69;59.88;100099.16;4961137;28;9721;-77
2022/03/02 02:47:50;;;;;;;;;50.50;44.75;;;;;2.89;59.01;100099.03;4976629;28;8944;-78
2022/03/02 02:50:21;;;;;;;;;43.00;39.75;;;;;2.99;59.22;100096.03;4962125;28;8876;-77
2022/03/02 02:52:53;;;;;;;;;47.00;40.25;;;;;3.13;58.97;100096.53;4965628;28;8918;-77
2022/03/02 02:55:25;;;;;;;;;47.75;44.50;;;;;3.26;58.34;100098.75;4960778;28;8860;-77
2022/03/02 02:57:56;;;;;;;;;41.75;37.50;;;;;3.37;57.75;100095.72;4987844;28;8872;-76
2022/03/02 03:00:27;;;;;;;;;40.67;36.00;;;;;3.16;57.72;100096.69;4975746;28;8873;-79
2022/03/02 03:02:58;;;;;;;;;51.50;43.75;;;;;3.25;57.44;100098.69;4960916;28;8965;-75
2022/03/02 03:05:30;;;;;;;;;52.75;42.00;;;;;3.40;57.72;100106.13;4979827;28;8887;-76
2022/03/02 03:08:01;;;;;;;;;45.75;38.75;;;;;3.52;56.90;100098.88;4983114;28;8869;-76
2022/03/02 03:10:31;;;;;;;;;43.50;42.00;;;;;3.22;57.16;100099.47;5018863;28;9055;-76
2022/03/02 03:13:00;;;;;;;;;60.50;47.50;;;;;3.13;57.81;100097.41;4989122;28;8876;-78
2022/03/02 03:15:29;;;;;;;;;56.00;46.00;;;;;3.11;58.37;100088.75;5014470;28;8872;-78
2022/03/02 03:17:58;;;;;;;;;48.75;44.00;;;;;3.01;58.58;100090.94;4980159;28;8971;-77
2022/03/02 03:20:28;;;;;;;;;38.25;37.00;;;;;2.90;59.51;100091.38;5014590;28;10135;-78
2022/03/02 03:22:58;;;;;;;;;56.50;47.25;;;;;2.96;59.56;100092.44;5013870;28;8862;-75
2022/03/02 03:25:29;;;;;;;;;46.00;42.25;;;;;3.01;59.03;100090.94;5016838;28;8870;-77
2022/03/02 03:27:58;;;;;;;;;54.00;44.50;;;;;3.17;59.21;100088.09;5001485;28;8869;-78
2022/03/02 03:30:28;;;;;;;;;44.50;44.25;;;;;3.32;58.20;100085.22;5032990;28;9024;-77
2022/03/02 03:32:57;;;;;;;;;50.25;44.00;;;;;3.34;57.98;100085.28;5016033;28;8881;-77
2022/03/02 03:35:27;;;;;;;;;44.00;40.00;;;;;2.87;58.82;100090.38;4996851;28;8878;-76
2022/03/02 03:37:56;;;;;;;;;42.25;42.25;;;;;3.01;57.67;100081.50;4995904;28;8830;-76
2022/03/02 03:40:24;;;;;;;;;48.25;42.75;;;;;2.39;59.96;100085.03;5019605;28;8952;-76
2022/03/02 03:42:55;;;;;;;;;53.50;44.25;;;;;2.43;59.71;100079.19;5026565;28;8869;-77
2022/03/02 03:45:25;;;;;;;;;41.50;41.00;;;;;2.36;60.67;100075.47;5033377;28;8898;-76
2022/03/02 03:47:54;;;;;;;;;41.25;38.50;;;;;2.61;59.86;100074.81;5022246;28;8889;-78
2022/03/02 03:50:22;;;;;;;;;39.50;37.75;;;;;2.89;59.37;100069.03;5028546;28;8863;-77
2022/03/02 03:52:51;;;;;;;;;54.50;45.25;;;;;3.05;58.81;100067.91;4980720;28;8901;-77
2022/03/02 03:55:20;;;;;;;;;44.00;37.25;;;;;3.22;58.58;100065.97;5018930;28;8878;-76
2022/03/02 03:57:49;;;;;;;;;41.00;34.25;;;;;3.47;58.14;100066.88;5014936;28;8870;-77
2022/03/02 04:00:21;;;;;;;;;44.25;40.75;;;;;3.69;57.58;100063.38;5015468;28;8882;-77
2022/03/02 04:02:49;;;;;;;;;45.25;42.75;;;;;3.84;56.75;100065.63;5014666;28;9685;-77
2022/03/02 04:05:18;;;;;;;;;43.75;41.50;;;;;3.87;55.70;100060.56;5013070;28;9720;-78
2022/03/02 04:07:48;;;;;;;;;49.50;41.00;;;;;3.55;55.26;100062.00;4995660;28;8870;-78
2022/03/02 04:10:17;;;;;;;;;52.00;43.75;;;;;2.81;57.95;100067.84;5020424;28;8956;-77
2022/03/02 04:12:47;;;;;;;;;47.00;36.50;;;;;2.60;58.36;100073.03;5025021;28;8852;-77
2022/03/02 04:15:15;;;;;;;;;26.00;22.75;;;;;2.63;58.32;100069.72;4993579;28;8866;-77
2022/03/02 04:17:46;;;;;;;;;46.50;43.75;;;;;2.53;58.55;100068.44;4999494;28;8886;-78
2022/03/02 04:20:14;;;;;;;;;35.75;31.75;;;;;2.64;58.35;100066.31;5016466;28;8979;-77
2022/03/02 04:22:43;;;;;;;;;31.25;30.75;;;;;2.62;58.46;100067.94;5001395;28;8867;-78
2022/03/02 04:25:12;;;;;;;;;42.25;37.25;;;;;2.56;58.74;100076.31;4998554;28;9133;-77
2022/03/02 04:27:41;;;;;;;;;46.00;41.25;;;;;2.64;58.59;100071.47;4944086;28;8847;-77
2022/03/02 04:30:11;;;;;;;;;42.00;37.00;;;;;2.76;58.43;100073.63;4994879;28;8862;-77
2022/03/02 04:32:40;;;;;;;;;43.50;36.75;;;;;2.73;58.15;100070.13;5012586;28;8956;-77
2022/03/02 04:35:13;;;;;;;;;36.50;34.75;;;;;2.79;57.71;100069.47;5002391;28;8860;-77
2022/03/02 04:37:42;;;;;;;;;41.25;37.75;;;;;2.76;57.75;100071.97;4971912;28;8878;-78
2022/03/02 04:40:12;;;;;;;;;50.50;42.50;;;;;2.42;58.72;100072.28;4996246;28;8917;-77
2022/03/02 04:42:42;;;;;;;;;45.00;38.75;;;;;2.70;58.24;100066.53;5018628;28;8959;-77
2022/03/02 04:45:11;;;;;;;;;44.25;39.00;;;;;2.87;58.51;100065.53;5023619;28;8883;-78
2022/03/02 04:47:40;;;;;;;;;37.75;31.50;;;;;2.80;58.95;100062.63;5006824;28;9077;-77
2022/03/02 04:50:12;;;;;;;;;42.75;34.75;;;;;2.96;58.84;100064.13;5025229;28;8877;-79
2022/03/02 04:52:41;;;;;;;;;85.75;65.50;;;;;3.10;59.05;100053.53;5053057;28;9021;-79
2022/03/02 04:55:11;;;;;;;;;43.00;41.25;;;;;3.30;58.74;100061.97;5013249;28;8891;-78
2022/03/02 04:57:42;;;;;;;;;47.25;43.25;;;;;3.26;58.87;100057.53;5021665;28;8904;-78
2022/03/02 05:00:14;;;;;;;;;41.00;39.00;;;;;3.12;59.82;100053.59;5018477;28;8874;-76
2022/03/02 05:02:43;;;;;;;;;42.00;35.75;;;;;3.20;59.98;100062.47;4983614;28;8954;-76
2022/03/02 05:05:15;;;;;;;;;45.00;41.75;;;;;3.27;60.18;100058.41;4977105;28;8908;-76
2022/03/02 05:07:44;;;;;;;;;37.75;33.25;;;;;3.38;59.67;100053.66;4993947;28;9020;-76
2022/03/02 05:10:14;;;;;;;;;41.25;37.75;;;;;3.27;59.40;100053.25;4977124;28;8943;-77
2022/03/02 05:12:44;;;;;;;;;43.75;41.75;;;;;2.70;61.28;100056.25;4978806;28;8857;-75
2022/03/02 05:15:14;;;;;;;;;64.25;50.50;;;;;2.85;61.09;100053.38;4992804;28;9634;-76
2022/03/02 05:17:44;;;;;;;;;69.50;57.00;;;;;3.11;60.63;100056.97;4974623;28;8868;-76
2022/03/02 05:20:15;;;;;;;;;44.50;42.25;;;;;3.05;60.53;100051.59;4972246;28;8877;-76
2022/03/02 05:22:44;;;;;;;;;43.50;39.00;;;;;3.22;60.63;100057.38;4972914;28;8861;-76
2022/03/02 05:25:15;;;;;;;;;50.50;44.50;;;;;2.87;61.92;100057.81;4987625;28;8853;-77
2022/03/02 05:27:45;;;;;;;;;40.00;37.50;;;;;2.61;63.20;100064.50;4955808;28;8857;-77
2022/03/02 05:30:18;;;;;;;;;37.00;37.00;;;;;2.81;63.03;100066.97;4970408;28;8888;-79
2022/03/02 05:32:47;;;;;;;;;51.25;45.75;;;;;2.66;62.96;100059.53;4986843;28;8880;-78
2022/03/02 05:35:17;;;;;;;;;19.75;17.25;;;;;2.69;63.07;100059.66;4974499;28;8852;-77
2022/03/02 05:37:47;;;;;;;;;48.00;45.50;;;;;2.42;63.45;100064.56;4987819;28;8861;-76
2022/03/02 05:40:17;;;;;;;;;31.00;28.50;;;;;2.18;64.86;100064.47;4972928;28;9726;-76
2022/03/02 05:42:53;;;;;;;;;51.25;45.50;;;;;2.29;64.36;100064.06;4974662;28;8861;-77
2022/03/02 05:45:23;;;;;;;;;47.75;46.00;;;;;2.34;64.00;100065.16;4975047;28;8868;-76
2022/03/02 05:47:52;;;;;;;;;40.00;40.00;;;;;2.09;64.24;100063.25;4971574;28;8860;-77
2022/03/02 05:50:22;;;;;;;;;47.50;36.75;;;;;1.93;64.12;100060.88;4992512;28;8869;-77
2022/03/02 05:52:51;;;;;;;;;46.75;41.00;;;;;1.98;64.29;100059.34;5003814;28;8903;-77
2022/03/02 05:55:19;;;;;;;;;51.50;46.50;;;;;2.17;63.22;100060.13;5003897;28;8853;-76
2022/03/02 05:57:48;;;;;;;;;43.25;38.75;;;;;1.85;63.75;100063.09;4987388;28;8869;-77
2022/03/02 06:00:17;;;;;;;;;35.00;34.25;;;;;1.70;63.79;100063.31;4990886;28;8876;-77
2022/03/02 06:02:46;;;;;;;;;49.50;43.00;;;;;1.63;63.77;100066.44;4989931;28;9642;-78
2022/03/02 06:05:15;;;;;;;;;38.75;34.50;;;;;1.19;64.38;100067.88;4975567;28;8864;-79
2022/03/02 06:07:45;;;;;;;;;29.25;26.00;;;;;1.08;64.60;100072.56;4972759;28;9622;-77
2022/03/02 06:10:16;;;;;;;;;41.75;37.50;;;;;0.96;64.99;100069.41;4971510;28;8963;-77
2022/03/02 06:12:45;;;;;;;;;33.50;30.75;;;;;1.01;64.64;100067.06;4926072;28;8880;-78
2022/03/02 06:15:14;;;;;;;;;45.75;42.00;;;;;0.82;64.94;100075.59;4970968;28;8856;-77
2022/03/02 06:17:44;;;;;;;;;35.75;33.00;;;;;0.80;64.31;100067.84;4935536;28;8871;-78
2022/03/02 06:20:13;;;;;;;;;27.25;24.00;;;;;0.61;63.97;100075.47;4966330;28;8857;-78
2022/03/02 06:22:43;;;;;;;;;35.75;30.50;;;;;0.70;65.35;100073.31;4969044;28;8850;-77
2022/03/02 06:25:14;;;;;;;;;35.00;34.00;;;;;0.86;64.71;100077.50;4984674;28;9562;-78
2022/03/02 06:27:43;;;;;;;;;38.25;36.25;;;;;0.85;64.33;100075.72;4966040;28;8864;-77
2022/03/02 06:30:14;;;;;;;;;36.00;30.50;;;;;0.66;64.63;100076.56;4971481;28;9004;-78
2022/03/02 06:32:43;;;;;;;;;36.25;33.00;;;;;0.71;64.84;100065.69;4965942;28;8871;-77
2022/03/02 06:35:12;;;;;;;;;44.50;38.00;;;;;0.83;65.14;100073.09;4976100;28;8862;-77
2022/03/02 06:37:41;;;;;;;;;43.50;37.25;;;;;0.86;64.37;100068.09;4951943;28;8897;-76
2022/03/02 06:40:13;;;;;;;;;41.25;38.75;;;;;0.98;64.41;100070.34;4960717;28;9145;-77
2022/03/02 06:42:59;;;;;;;;;51.50;44.75;;;;;1.08;64.09;100052.00;4940184;28;8852;-77
2022/03/02 06:45:35;;;;;;;;;38.50;33.00;;;;;1.08;62.98;100059.72;4992735;28;8883;-78
2022/03/02 06:48:12;;;;;;;;;48.50;45.00;;;;;1.10;63.67;100064.94;5013459;28;8906;-77
2022/03/02 06:50:45;;;;;;;;;39.00;36.75;;;;;0.93;62.84;100065.03;5001977;28;8845;-76
2022/03/02 06:53:15;;;;;;;;;32.50;30.75;;;;;0.85;62.11;100073.16;4963318;28;9018;-77
2022/03/02 06:55:46;;;;;;;;;34.50;33.75;;;;;0.88;61.78;100068.19;4967702;28;9097;-77
2022/03/02 06:58:21;;;;;;;;;48.50;44.50;;;;;0.88;61.94;100068.19;4971031;28;8876;-77
2022/03/02 07:00:54;;;;;;;;;30.75;30.25;;;;;0.76;61.70;100071.06;4971568;28;9662;-79
2022/03/02 07:03:28;;;;;;;;;42.50;33.00;;;;;0.75;60.79;100054.75;4935235;28;8862;-79
2022/03/02 07:05:57;;;;;;;;;37.00;35.25;;;;;0.72;62.27;100058.91;4962443;28;8995;-78
2022/03/02 07:08:26;;;;;;;;;28.00;23.25;;;;;0.84;61.25;100050.88;4948230;28;8886;-78
2022/03/02 07:10:55;;;;;;;;;31.50;30.50;;;;;0.88;61.41;100055.34;4961508;28;8914;-78
2022/03/02 07:13:27;;;;;;;;;33.75;30.00;;;;;0.74;60.81;100055.59;4938402;28;8865;-78
2022/03/02 07:15:55;;;;;;;;;31.50;28.25;;;;;0.74;61.53;100050.44;4950347;28;8990;-77
2022/03/02 07:18:25;;;;;;;;;38.50;34.50;;;;;0.83;61.76;100064.50;4965698;28;8933;-78
2022/03/02 07:20:57;;;;;;;;;35.00;33.00;;;;;0.96;61.16;100059.13;4946850;28;8964;-77
2022/03/02 07:23:35;;;;;;;;;35.50;31.50;;;;;1.07;60.45;100050.25;4965854;28;8897;-77
2022/03/02 07:26:06;;;;;;;;;34.75;29.75;;;;;1.30;60.34;100056.41;4980710;28;8881;-79
2022/03/02 07:28:39;;;;;;;;;44.50;41.25;;;;;1.43;60.01;100051.81;4969343;28;8864;-77
2022/03/02 07:31:08;;;;;;;;;33.75;31.00;;;;;1.52;59.78;100058.25;4969768;28;8893;-77
2022/03/02 07:33:42;;;;;;;;;35.50;35.25;;;;;1.51;59.68;100053.94;4956559;28;8872;-79
2022/03/02 07:36:11;;;;;;;;;36.25;36.00;;;;;1.53;60.04;100052.31;5007006;28;8886;-77
2022/03/02 07:38:40;;;;;;;;;32.50;29.25;;;;;1.44;60.72;100051.03;4990406;28;8882;-77
2022/03/02 07:41:10;;;;;;;;;43.50;38.75;;;;;1.26;60.46;100059.66;5023365;28;8858;-76
2022/03/02 07:43:41;;;;;;;;;39.00;36.25;;;;;1.28;61.23;100055.47;5007658;28;8862;-77
2022/03/02 07:46:11;;;;;;;;;36.25;32.00;;;;;1.49;61.86;100049.53;5006042;28;8854;-77
2022/03/02 07:48:40;;;;;;;;;49.75;42.75;;;;;1.66;61.11;100055.41;4999648;28;8917;-76
2022/03/02 07:51:11;;;;;;;;;43.00;40.75;;;;;2.00;61.04;100051.69;5005536;28;9079;-78
2022/03/02 07:53:43;;;;;;;;;35.00;34.50;;;;;2.13;60.47;100041.97;5003918;28;8953;-75
2022/03/02 07:56:13;;;;;;;;;48.00;44.75;;;;;2.46;60.12;100048.44;5005536;28;8919;-77
2022/03/02 07:58:44;;;;;;;;;48.75;42.25;;;;;2.27;59.95;100050.28;5002677;28;8854;-77
2022/03/02 08:01:15;;;;;;;;;44.75;41.50;;;;;2.20;60.26;100052.53;5032362;28;8889;-79
2022/03/02 08:03:45;;;;;;;;;34.50;29.50;;;;;2.34;60.85;100047.13;4969866;28;8921;-79
2022/03/02 08:06:14;;;;;;;;;41.25;34.75;;;;;2.43;58.61;100044.03;5002384;28;8885;-79
2022/03/02 08:08:42;;;;;;;;;41.33;36.67;;;;;2.38;59.95;100042.09;4983346;28;8893;-80
2022/03/02 08:11:11;;;;;;;;;38.75;38.00;;;;;2.79;59.03;100043.72;5007661;28;8898;-80
2022/03/02 08:13:41;;;;;;;;;52.00;43.00;;;;;2.28;58.86;100044.28;5003115;28;8869;-82
2022/03/02 08:16:14;;;;;;;;;56.75;48.25;;;;;2.20;58.86;100044.81;5004011;28;8898;-80
2022/03/02 08:18:43;;;;;;;;;54.25;47.50;;;;;2.46;59.27;100038.16;4988443;28;8887;-79
2022/03/02 08:21:17;;;;;;;;;64.25;50.50;;;;;2.30;60.44;100034.06;5023215;28;8877;-81
2022/03/02 08:23:48;;;;;;;;;61.75;48.50;;;;;2.20;58.52;100043.13;4990971;28;8920;-79
2022/03/02 08:26:20;;;;;;;;;50.00;42.00;;;;;1.94;59.89;100039.47;5007135;28;8915;-80
2022/03/02 08:28:55;;;;;;;;;45.25;42.25;;;;;1.88;60.95;100046.91;5004454;28;8856;-78
2022/03/02 08:31:27;;;;;;;;;44.25;38.25;;;;;1.93;58.79;100042.84;5008392;28;8870;-80
2022/03/02 08:33:57;;;;;;;;;41.75;32.50;;;;;1.95;58.42;100023.22;5009853;28;8929;-76
2022/03/02 08:36:33;;;;;;;;;37.75;37.25;;;;;1.94;60.26;100024.03;5003281;28;8903;-79
2022/03/02 08:39:05;;;;;;;;;47.50;43.00;;;;;2.08;61.16;100037.44;4970463;28;8893;-79
2022/03/02 08:41:34;;;;;;;;;40.50;36.50;;;;;2.37;60.04;100025.78;5002495;28;8932;-79
2022/03/02 08:44:06;;;;;;;;;50.75;44.50;;;;;2.44;60.01;100034.63;5008851;28;8956;-79
2022/03/02 08:46:36;;;;;;;;;55.50;47.75;;;;;2.59;59.93;100029.19;5008996;28;8855;-78
2022/03/02 08:49:06;;;;;;;;;41.00;39.50;;;;;2.91;60.05;100015.88;4996264;28;9004;-80
2022/03/02 08:51:39;;;;;;;;;39.00;37.00;;;;;2.81;60.27;100012.88;4976544;28;8894;-77
2022/03/02 08:54:11;;;;;;;;;46.00;43.50;;;;;3.06;59.41;100014.69;4999478;28;9667;-78
2022/03/02 08:56:40;;;;;;;;;57.00;45.50;;;;;3.40;58.64;100016.78;5009578;28;8854;-79
2022/03/02 08:59:13;;;;;;;;;51.50;42.75;;;;;3.21;58.94;100016.94;4992227;28;8866;-78
2022/03/02 09:01:50;;;;;;;;;42.50;37.00;;;;;3.56;57.95;100015.63;4981145;28;8974;-80
2022/03/02 09:04:21;;;;;;;;;29.50;26.50;;;;;3.30;56.63;100012.13;5008798;28;8950;-79
2022/03/02 09:06:50;;;;;;;;;41.75;38.00;;;;;3.18;57.65;100020.31;5008704;28;9656;-79
2022/03/02 09:09:20;;;;;;;;;43.75;38.75;;;;;2.76;58.31;100015.31;4959700;28;8924;-78
2022/03/02 09:11:49;;;;;;;;;36.75;36.75;;;;;2.44;59.57;100014.94;5007582;28;8900;-79
2022/03/02 09:14:19;;;;;;;;;42.75;40.25;;;;;2.64;60.06;100009.66;5008945;28;8911;-79
2022/03/02 09:16:49;;;;;;;;;41.50;35.25;;;;;2.46;59.60;100023.59;4990461;28;8883;-79
2022/03/02 09:19:18;;;;;;;;;42.25;36.50;;;;;2.67;58.68;100009.78;5008823;28;8885;-78
2022/03/02 09:21:47;;;;;;;;;39.50;37.00;;;;;2.85;57.03;100007.03;4992415;28;8858;-79
2022/03/02 09:24:16;;;;;;;;;38.50;31.00;;;;;2.77;56.01;100008.44;4992731;28;8923;-78
2022/03/02 09:26:46;;;;;;;;;40.25;36.50;;;;;3.02;56.09;99997.34;5009763;28;8923;-78
2022/03/02 09:29:17;;;;;;;;;35.25;32.25;;;;;2.83;54.69;99990.66;5008793;28;8878;-79
2022/03/02 09:31:51;;;;;;;;;37.75;33.25;;;;;2.75;54.98;99995.50;5004965;28;8908;-79
2022/03/02 09:34:26;;;;;;;;;35.75;33.75;;;;;2.93;55.43;99988.47;5005929;28;8889;-78
2022/03/02 09:36:56;;;;;;;;;29.00;28.75;;;;;3.12;54.13;99986.59;4984083;28;8865;-78
2022/03/02 09:39:26;;;;;;;;;33.25;31.00;;;;;3.20;53.08;99990.31;4988269;28;8873;-76
2022/03/02 09:42:03;;;;;;;;;35.75;29.75;;;;;2.85;52.41;99995.03;5015782;28;8958;-78
2022/03/02 09:44:40;;;;;;;;;26.50;26.00;;;;;3.17;52.59;99994.47;5006475;28;8864;-79
2022/03/02 09:47:16;;;;;;;;;30.00;29.25;;;;;3.59;51.95;99989.06;4978305;28;8880;-80
2022/03/02 09:49:50;;;;;;;;;31.00;28.75;;;;;3.55;50.49;99989.81;4992329;28;8882;-79
2022/03/02 09:52:20;;;;;;;;;28.75;25.25;;;;;3.57;50.22;99991.59;4994551;28;8989;-79
2022/03/02 09:54:53;;;;;;;;;31.00;29.50;;;;;3.70;50.59;99982.59;4995188;28;8850;-81
2022/03/02 09:57:22;;;;;;;;;25.75;25.25;;;;;3.95;49.75;99984.31;5006044;28;8854;-80
2022/03/02 09:59:53;;;;;;;;;28.50;24.75;;;;;3.71;49.60;99971.47;4987786;28;9730;-79
2022/03/02 10:02:36;;;;;;;;;29.75;25.50;;;;;3.68;49.39;99967.06;5002825;28;8882;-79
2022/03/02 10:05:08;;;;;;;;;32.75;30.75;;;;;3.63;49.56;99971.19;5002496;28;8846;-79
2022/03/02 10:07:40;;;;;;;;;28.25;25.75;;;;;3.94;49.21;99966.19;5007117;28;8884;-81
2022/03/02 10:10:11;;;;;;;;;26.50;23.00;;;;;4.13;48.99;99954.75;4991593;28;8874;-77
2022/03/02 10:12:41;;;;;;;;;29.00;25.50;;;;;4.36;48.23;99958.06;5008033;28;8870;-78
2022/03/02 10:15:15;;;;;;;;;23.75;21.00;;;;;4.77;47.82;99953.28;4991643;28;8866;-78
2022/03/02 10:17:48;;;;;;;;;27.50;24.50;;;;;4.56;48.05;99956.09;5021370;28;8891;-79
2022/03/02 10:20:19;;;;;;;;;30.25;26.50;;;;;4.61;47.78;99955.41;5014808;28;8870;-78
2022/03/02 10:23:18;;;;;;;;;31.25;28.50;;;;;4.65;47.39;99949.50;5000109;28;8940;-81
2022/03/02 10:25:59;;;;;;;;;34.50;29.50;;;;;4.53;47.81;99956.88;4987383;28;8951;-78
2022/03/02 10:28:29;;;;;;;;;36.00;29.75;;;;;4.78;48.45;99947.25;5007676;28;8866;-78
2022/03/02 10:31:40;;;;;;;;;34.75;25.00;;;;;4.94;48.04;99944.28;4987521;28;8862;-79
2022/03/02 10:34:31;;;;;;;;;30.25;24.75;;;;;5.27;46.13;99938.31;4918547;28;8883;-77
2022/03/02 10:37:13;;;;;;;;;23.75;22.75;;;;;4.54;47.31;99944.81;4921836;28;8859;-78
2022/03/02 10:39:55;;;;;;;;;36.00;33.25;;;;;4.90;47.89;99934.72;4966175;28;9064;-77
2022/03/02 10:42:28;;;;;;;;;24.75;23.00;;;;;5.26;46.82;99924.50;4949308;28;8860;-77
2022/03/02 10:45:06;;;;;;;;;25.25;24.50;;;;;5.61;46.62;99923.66;4906700;28;8986;-76
2022/03/02 10:47:39;;;;;;;;;32.00;22.50;;;;;5.99;46.11;99919.50;4950787;28;8878;-77
2022/03/02 10:50:10;;;;;;;;;29.00;28.00;;;;;5.69;45.67;99921.28;4950918;28;8903;-77
2022/03/02 10:52:40;;;;;;;;;30.00;27.00;;;;;5.35;46.22;99926.47;4966896;28;8856;-79
2022/03/02 10:55:12;;;;;;;;;27.25;26.50;;;;;5.63;45.30;99922.91;4951495;28;8967;-79
2022/03/02 10:57:42;;;;;;;;;33.00;28.50;;;;;5.29;45.47;99923.69;4889552;28;8860;-78
2022/03/02 11:00:14;;;;;;;;;27.00;25.50;;;;;5.65;46.40;99913.47;4964726;28;8946;-78
2022/03/02 11:02:45;;;;;;;;;27.25;23.00;;;;;5.96;44.91;99906.47;4931299;28;8878;-78
2022/03/02 11:05:17;;;;;;;;;28.00;26.25;;;;;6.19;44.59;99911.31;4943074;28;8866;-79
2022/03/02 11:07:48;;;;;;;;;25.50;25.00;;;;;6.02;45.75;99905.75;4970943;28;8866;-79
2022/03/02 11:10:18;;;;;;;;;26.25;23.75;;;;;6.43;44.59;99893.72;4989399;28;8906;-78
2022/03/02 11:12:49;;;;;;;;;26.00;23.25;;;;;6.84;44.18;99882.47;4986202;28;8864;-80
2022/03/02 11:15:19;;;;;;;;;26.75;24.00;;;;;7.14;43.31;99877.00;4972313;28;8898;-83
2022/03/02 11:17:56;;;;;;;;;32.75;28.00;;;;;7.28;42.07;99874.69;4961505;28;8971;-78
2022/03/02 11:20:29;;;;;;;;;33.00;27.75;;;;;6.79;42.87;99873.75;4969850;28;8857;-78
2022/03/02 11:23:00;;;;;;;;;31.25;30.75;;;;;6.89;42.10;99874.78;4949309;28;8870;-79
2022/03/02 11:25:42;;;;;;;;;36.50;28.25;;;;;6.46;42.82;99884.28;4930268;29;8876;-79
2022/03/02 11:28:16;;;;;;;;;32.25;27.75;;;;;6.12;43.75;99874.03;4948543;28;8867;-79
2022/03/02 11:30:50;;;;;;;;;31.75;28.00;;;;;6.52;43.75;99864.56;4965667;28;8981;-79
2022/03/02 11:33:23;;;;;;;;;29.50;27.25;;;;;6.22;43.49;99862.19;4966725;28;8843;-79
2022/03/02 11:35:59;;;;;;;;;30.25;27.75;;;;;5.92;43.21;99859.75;4956408;28;9173;-80
2022/03/02 11:38:32;;;;;;;;;23.00;23.00;;;;;6.05;43.73;99851.47;4950522;28;9580;-79
2022/03/02 11:41:01;;;;;;;;;27.75;24.25;;;;;5.68;43.76;99860.03;4954961;28;8899;-78
2022/03/02 11:43:32;;;;;;;;;24.25;24.25;;;;;5.86;43.77;99857.91;4956145;28;8884;-79